Terminal Aerodrome Forecast
Issued by NWS Lake Charles, LA

Home | Current Version | Previous Version | Text Only | Print | Product List | Glossary On
Versions: 1 2 3 4 5 6 7 8 9 10 11 12 13 14 15 16
369
FTUS44 KLCH 301937 AAA
TAFBPT
TAF AMD
KBPT 301937Z 3020/3118 16011KT P6SM VCSH SCT040 BKN250
     FM310000 VRB04KT P6SM SCT250
     FM311000 VRB03KT 5SM BR SKC
     FM311400 18006KT P6SM SCT025=

USA.gov is the U.S. government's official web portal to all federal, state and local government web resources and services.